sensor_id;sensor_type;location;lat;lon;timestamp;pressure;altitude;pressure_sealevel;temperature;humidity
76205;BME280;64986;55.672;37.628;2022-11-12T00:00:43;99487.34;;;8.21;82.08
76205;BME280;64986;55.672;37.628;2022-11-12T00:03:09;99489.97;;;8.21;82.50
76205;BME280;64986;55.672;37.628;2022-11-12T00:05:35;99509.53;;;8.18;82.34
76205;BME280;64986;55.672;37.628;2022-11-12T00:08:01;99496.97;;;8.14;82.89
76205;BME280;64986;55.672;37.628;2022-11-12T00:10:27;99473.53;;;8.05;82.60
76205;BME280;64986;55.672;37.628;2022-11-12T00:12:52;99449.25;;;7.97;83.05
76205;BME280;64986;55.672;37.628;2022-11-12T00:15:18;99440.31;;;7.91;83.31
76205;BME280;64986;55.672;37.628;2022-11-12T00:17:44;99459.19;;;7.80;83.86
76205;BME280;64986;55.672;37.628;2022-11-12T00:20:10;99438.44;;;7.85;83.79
76205;BME280;64986;55.672;37.628;2022-11-12T00:22:35;99420.69;;;7.81;83.44
76205;BME280;64986;55.672;37.628;2022-11-12T00:25:01;99429.84;;;7.70;84.21
76205;BME280;64986;55.672;37.628;2022-11-12T00:27:26;99414.25;;;7.62;85.20
76205;BME280;64986;55.672;37.628;2022-11-12T00:29:52;99443.31;;;7.67;84.83
76205;BME280;64986;55.672;37.628;2022-11-12T00:32:18;99443.72;;;7.64;84.93
76205;BME280;64986;55.672;37.628;2022-11-12T00:34:44;99439.50;;;7.69;85.39
76205;BME280;64986;55.672;37.628;2022-11-12T00:37:09;99435.34;;;7.75;85.04
76205;BME280;64986;55.672;37.628;2022-11-12T00:39:35;99427.69;;;7.73;84.73
76205;BME280;64986;55.672;37.628;2022-11-12T00:42:00;99440.50;;;7.68;84.98
76205;BME280;64986;55.672;37.628;2022-11-12T00:44:26;99433.22;;;7.85;84.95
76205;BME280;64986;55.672;37.628;2022-11-12T00:46:54;99458.66;;;7.91;84.21
76205;BME280;64986;55.672;37.628;2022-11-12T00:49:19;99461.28;;;7.91;84.13
76205;BME280;64986;55.672;37.628;2022-11-12T00:51:45;99447.19;;;7.92;83.68
76205;BME280;64986;55.672;37.628;2022-11-12T00:54:10;99443.19;;;7.96;84.21
76205;BME280;64986;55.672;37.628;2022-11-12T00:56:36;99448.19;;;7.91;84.63
76205;BME280;64986;55.672;37.628;2022-11-12T00:59:01;99447.25;;;7.77;85.26
76205;BME280;64986;55.672;37.628;2022-11-12T01:01:27;99440.19;;;7.78;85.25
76205;BME280;64986;55.672;37.628;2022-11-12T01:03:52;99462.41;;;7.82;85.69
76205;BME280;64986;55.672;37.628;2022-11-12T01:06:21;99450.19;;;7.89;85.22
76205;BME280;64986;55.672;37.628;2022-11-12T01:08:48;99468.53;;;7.89;85.09
76205;BME280;64986;55.672;37.628;2022-11-12T01:11:22;99453.31;;;7.78;85.35
76205;BME280;64986;55.672;37.628;2022-11-12T01:14:03;99412.16;;;7.72;85.89
76205;BME280;64986;55.672;37.628;2022-11-12T01:16:33;99431.97;;;7.81;85.97
76205;BME280;64986;55.672;37.628;2022-11-12T01:19:00;99423.38;;;7.87;85.04
76205;BME280;64986;55.672;37.628;2022-11-12T01:21:28;99416.13;;;7.89;84.70
76205;BME280;64986;55.672;37.628;2022-11-12T01:23:56;99419.06;;;7.79;85.01
76205;BME280;64986;55.672;37.628;2022-11-12T01:26:22;99408.13;;;7.76;85.76
76205;BME280;64986;55.672;37.628;2022-11-12T01:28:48;99411.22;;;7.79;85.65
76205;BME280;64986;55.672;37.628;2022-11-12T01:31:26;99432.47;;;7.91;85.38
76205;BME280;64986;55.672;37.628;2022-11-12T01:33:54;99400.16;;;7.84;85.59
76205;BME280;64986;55.672;37.628;2022-11-12T01:36:21;99437.47;;;7.86;85.41
76205;BME280;64986;55.672;37.628;2022-11-12T01:38:47;99399.53;;;7.82;84.91
76205;BME280;64986;55.672;37.628;2022-11-12T01:41:16;99391.53;;;7.90;85.93
76205;BME280;64986;55.672;37.628;2022-11-12T01:43:43;99402.75;;;7.84;85.80
76205;BME280;64986;55.672;37.628;2022-11-12T01:46:27;99402.28;;;7.95;84.79
76205;BME280;64986;55.672;37.628;2022-11-12T01:48:58;99388.97;;;7.97;84.95
76205;BME280;64986;55.672;37.628;2022-11-12T01:51:31;99391.38;;;7.98;84.87
76205;BME280;64986;55.672;37.628;2022-11-12T01:54:01;99383.16;;;8.01;85.48
76205;BME280;64986;55.672;37.628;2022-11-12T01:56:29;99383.66;;;7.90;85.65
76205;BME280;64986;55.672;37.628;2022-11-12T01:59:02;99406.06;;;7.93;86.06
76205;BME280;64986;55.672;37.628;2022-11-12T02:01:29;99389.25;;;8.09;85.60
76205;BME280;64986;55.672;37.628;2022-11-12T02:03:55;99398.69;;;8.03;85.52
76205;BME280;64986;55.672;37.628;2022-11-12T02:06:21;99410.03;;;8.10;85.22
76205;BME280;64986;55.672;37.628;2022-11-12T02:08:48;99412.97;;;8.00;85.32
76205;BME280;64986;55.672;37.628;2022-11-12T02:11:16;99387.16;;;7.97;85.76
76205;BME280;64986;55.672;37.628;2022-11-12T02:13:43;99369.06;;;8.02;85.23
76205;BME280;64986;55.672;37.628;2022-11-12T02:16:32;99385.19;;;8.06;85.30
76205;BME280;64986;55.672;37.628;2022-11-12T02:18:59;99363.06;;;8.09;85.24
76205;BME280;64986;55.672;37.628;2022-11-12T02:21:26;99365.38;;;7.97;86.00
76205;BME280;64986;55.672;37.628;2022-11-12T02:24:04;99371.19;;;7.92;86.93
76205;BME280;64986;55.672;37.628;2022-11-12T02:26:36;99350.03;;;7.94;86.49
76205;BME280;64986;55.672;37.628;2022-11-12T02:29:03;99349.41;;;7.92;86.73
76205;BME280;64986;55.672;37.628;2022-11-12T02:31:29;99353.84;;;7.91;86.71
76205;BME280;64986;55.672;37.628;2022-11-12T02:33:54;99350.59;;;7.89;86.62
76205;BME280;64986;55.672;37.628;2022-11-12T02:36:20;99363.00;;;8.02;86.47
76205;BME280;64986;55.672;37.628;2022-11-12T02:38:46;99347.22;;;7.95;86.27
76205;BME280;64986;55.672;37.628;2022-11-12T02:41:11;99350.03;;;7.94;86.57
76205;BME280;64986;55.672;37.628;2022-11-12T02:43:37;99338.97;;;7.98;86.65
76205;BME280;64986;55.672;37.628;2022-11-12T02:46:03;99327.47;;;7.99;87.01
76205;BME280;64986;55.672;37.628;2022-11-12T02:48:29;99336.59;;;8.03;86.90
76205;BME280;64986;55.672;37.628;2022-11-12T02:50:54;99344.22;;;7.98;86.83
76205;BME280;64986;55.672;37.628;2022-11-12T02:53:20;99363.81;;;8.02;86.67
76205;BME280;64986;55.672;37.628;2022-11-12T02:55:45;99336.97;;;8.00;86.68
76205;BME280;64986;55.672;37.628;2022-11-12T02:58:11;99329.94;;;8.07;86.38
76205;BME280;64986;55.672;37.628;2022-11-12T03:00:36;99329.72;;;8.02;86.72
76205;BME280;64986;55.672;37.628;2022-11-12T03:03:01;99329.72;;;8.02;86.60
76205;BME280;64986;55.672;37.628;2022-11-12T03:05:30;99335.03;;;8.09;86.90
76205;BME280;64986;55.672;37.628;2022-11-12T03:07:58;99328.00;;;8.16;86.27
76205;BME280;64986;55.672;37.628;2022-11-12T03:10:25;99317.16;;;8.26;86.15
76205;BME280;64986;55.672;37.628;2022-11-12T03:12:51;99327.81;;;8.18;85.68
76205;BME280;64986;55.672;37.628;2022-11-12T03:15:17;99378.66;;;8.23;85.72
76205;BME280;64986;55.672;37.628;2022-11-12T03:17:42;99322.41;;;8.26;85.64
76205;BME280;64986;55.672;37.628;2022-11-12T03:20:09;99345.41;;;8.30;85.55
76205;BME280;64986;55.672;37.628;2022-11-12T03:22:36;99317.44;;;8.38;85.45
76205;BME280;64986;55.672;37.628;2022-11-12T03:25:02;99321.00;;;8.30;85.50
76205;BME280;64986;55.672;37.628;2022-11-12T03:27:27;99318.00;;;8.33;85.55
76205;BME280;64986;55.672;37.628;2022-11-12T03:29:53;99309.50;;;8.24;85.84
76205;BME280;64986;55.672;37.628;2022-11-12T03:32:18;99304.25;;;8.31;85.65
76205;BME280;64986;55.672;37.628;2022-11-12T03:34:44;99306.88;;;8.31;85.21
76205;BME280;64986;55.672;37.628;2022-11-12T03:37:09;99304.16;;;8.39;85.82
76205;BME280;64986;55.672;37.628;2022-11-12T03:39:35;99278.72;;;8.46;85.10
76205;BME280;64986;55.672;37.628;2022-11-12T03:42:01;99294.63;;;8.38;85.45
76205;BME280;64986;55.672;37.628;2022-11-12T03:44:26;99308.31;;;8.33;85.52
76205;BME280;64986;55.672;37.628;2022-11-12T03:46:52;99295.03;;;8.35;85.36
76205;BME280;64986;55.672;37.628;2022-11-12T03:49:17;99292.41;;;8.35;85.66
76205;BME280;64986;55.672;37.628;2022-11-12T03:51:43;99280.34;;;8.41;85.93
76205;BME280;64986;55.672;37.628;2022-11-12T03:54:08;99309.41;;;8.39;85.54
76205;BME280;64986;55.672;37.628;2022-11-12T03:56:34;99304.34;;;8.44;85.97
76205;BME280;64986;55.672;37.628;2022-11-12T03:58:59;99328.97;;;8.43;85.47
76205;BME280;64986;55.672;37.628;2022-11-12T04:01:25;99303.78;;;8.49;85.24
76205;BME280;64986;55.672;37.628;2022-11-12T04:03:50;99285.78;;;8.39;85.37
76205;BME280;64986;55.672;37.628;2022-11-12T04:06:16;99285.63;;;8.47;85.75
76205;BME280;64986;55.672;37.628;2022-11-12T04:08:59;99282.59;;;8.50;85.37
76205;BME280;64986;55.672;37.628;2022-11-12T04:11:25;99274.13;;;8.48;85.47
76205;BME280;64986;55.672;37.628;2022-11-12T04:13:50;99286.59;;;8.46;85.21
76205;BME280;64986;55.672;37.628;2022-11-12T04:16:19;99296.97;;;8.54;85.25
76205;BME280;64986;55.672;37.628;2022-11-12T04:19:04;99276.94;;;8.47;85.31
76205;BME280;64986;55.672;37.628;2022-11-12T04:21:52;99242.66;;;8.48;85.27
76205;BME280;64986;55.672;37.628;2022-11-12T04:27:15;99259.84;;;8.64;85.41
76205;BME280;64986;55.672;37.628;2022-11-12T04:29:42;99260.25;;;8.68;85.11
76205;BME280;64986;55.672;37.628;2022-11-12T04:32:26;99259.00;;;8.57;85.08
76205;BME280;64986;55.672;37.628;2022-11-12T04:34:52;99271.31;;;8.56;85.08
76205;BME280;64986;55.672;37.628;2022-11-12T04:37:18;99248.53;;;8.64;85.27
76205;BME280;64986;55.672;37.628;2022-11-12T04:39:43;99254.78;;;8.56;85.10
76205;BME280;64986;55.672;37.628;2022-11-12T04:42:09;99264.88;;;8.66;85.43
76205;BME280;64986;55.672;37.628;2022-11-12T04:44:53;99259.88;;;8.71;85.25
76205;BME280;64986;55.672;37.628;2022-11-12T04:47:38;99267.09;;;8.69;85.06
76205;BME280;64986;55.672;37.628;2022-11-12T04:50:09;99249.34;;;8.64;85.13
76205;BME280;64986;55.672;37.628;2022-11-12T04:52:36;99240.44;;;8.58;84.95
76205;BME280;64986;55.672;37.628;2022-11-12T04:55:02;99248.75;;;8.69;85.11
76205;BME280;64986;55.672;37.628;2022-11-12T04:57:28;99251.16;;;8.64;84.97
76205;BME280;64986;55.672;37.628;2022-11-12T04:59:53;99243.09;;;8.72;85.01
76205;BME280;64986;55.672;37.628;2022-11-12T05:02:19;99250.78;;;8.73;85.13
76205;BME280;64986;55.672;37.628;2022-11-12T05:04:44;99250.38;;;8.83;85.09
76205;BME280;64986;55.672;37.628;2022-11-12T05:07:10;99256.44;;;8.70;84.59
76205;BME280;64986;55.672;37.628;2022-11-12T05:09:36;99265.94;;;8.78;84.33
76205;BME280;64986;55.672;37.628;2022-11-12T05:12:02;99257.25;;;8.77;84.68
76205;BME280;64986;55.672;37.628;2022-11-12T05:14:28;99244.34;;;8.82;84.69
76205;BME280;64986;55.672;37.628;2022-11-12T05:16:53;99245.34;;;8.88;84.59
76205;BME280;64986;55.672;37.628;2022-11-12T05:19:19;99236.69;;;8.87;85.04
76205;BME280;64986;55.672;37.628;2022-11-12T05:21:45;99240.72;;;8.90;84.37
76205;BME280;64986;55.672;37.628;2022-11-12T05:24:29;99229.81;;;8.93;84.58
76205;BME280;64986;55.672;37.628;2022-11-12T05:26:55;99235.69;;;8.95;84.62
76205;BME280;64986;55.672;37.628;2022-11-12T05:29:20;99234.44;;;8.91;84.60
76205;BME280;64986;55.672;37.628;2022-11-12T05:31:46;99240.34;;;9.00;84.20
76205;BME280;64986;55.672;37.628;2022-11-12T05:34:11;99258.50;;;9.01;84.40
76205;BME280;64986;55.672;37.628;2022-11-12T05:36:37;99239.72;;;9.04;84.73
76205;BME280;64986;55.672;37.628;2022-11-12T05:39:03;99231.84;;;9.04;84.36
76205;BME280;64986;55.672;37.628;2022-11-12T05:41:29;99235.91;;;9.07;84.59
76205;BME280;64986;55.672;37.628;2022-11-12T05:43:55;99250.81;;;9.06;83.96
76205;BME280;64986;55.672;37.628;2022-11-12T05:46:20;99230.66;;;9.00;84.03
76205;BME280;64986;55.672;37.628;2022-11-12T05:48:46;99235.91;;;9.00;84.49
76205;BME280;64986;55.672;37.628;2022-11-12T05:51:11;99219.94;;;9.08;84.22
76205;BME280;64986;55.672;37.628;2022-11-12T05:53:41;99219.75;;;9.16;84.36
76205;BME280;64986;55.672;37.628;2022-11-12T05:56:07;99221.78;;;9.14;84.33
76205;BME280;64986;55.672;37.628;2022-11-12T05:58:35;99222.56;;;9.15;84.30
76205;BME280;64986;55.672;37.628;2022-11-12T06:01:01;99237.31;;;9.09;83.52
76205;BME280;64986;55.672;37.628;2022-11-12T06:03:27;99226.41;;;9.12;84.39
76205;BME280;64986;55.672;37.628;2022-11-12T06:05:52;99224.41;;;9.14;83.82
76205;BME280;64986;55.672;37.628;2022-11-12T06:08:18;99225.78;;;9.10;83.61
76205;BME280;64986;55.672;37.628;2022-11-12T06:10:51;99223.78;;;9.26;84.00
76205;BME280;64986;55.672;37.628;2022-11-12T06:13:17;99225.38;;;9.33;84.17
76205;BME280;64986;55.672;37.628;2022-11-12T06:15:43;99228.81;;;9.34;84.23
76205;BME280;64986;55.672;37.628;2022-11-12T06:18:08;99247.41;;;9.32;84.15
76205;BME280;64986;55.672;37.628;2022-11-12T06:20:34;99232.03;;;9.36;84.16
76205;BME280;64986;55.672;37.628;2022-11-12T06:23:00;99227.22;;;9.33;84.08
76205;BME280;64986;55.672;37.628;2022-11-12T06:25:25;99233.47;;;9.32;84.07
76205;BME280;64986;55.672;37.628;2022-11-12T06:27:51;99224.59;;;9.33;84.06
76205;BME280;64986;55.672;37.628;2022-11-12T06:30:16;99212.47;;;9.32;83.91
76205;BME280;64986;55.672;37.628;2022-11-12T06:32:45;99194.25;;;9.37;84.21
76205;BME280;64986;55.672;37.628;2022-11-12T06:35:11;99215.47;;;9.35;83.97
76205;BME280;64986;55.672;37.628;2022-11-12T06:37:36;99216.06;;;9.44;84.35
76205;BME280;64986;55.672;37.628;2022-11-12T06:40:02;99192.25;;;9.39;83.78
76205;BME280;64986;55.672;37.628;2022-11-12T06:42:28;99200.72;;;9.41;83.31
76205;BME280;64986;55.672;37.628;2022-11-12T06:44:53;99191.44;;;9.45;83.69
76205;BME280;64986;55.672;37.628;2022-11-12T06:47:18;99244.38;;;9.49;83.65
76205;BME280;64986;55.672;37.628;2022-11-12T06:49:44;99223.16;;;9.50;84.01
76205;BME280;64986;55.672;37.628;2022-11-12T06:52:09;99217.09;;;9.56;82.99
76205;BME280;64986;55.672;37.628;2022-11-12T06:54:35;99212.63;;;9.63;83.89
76205;BME280;64986;55.672;37.628;2022-11-12T06:57:00;99217.69;;;9.58;83.54
76205;BME280;64986;55.672;37.628;2022-11-12T06:59:26;99222.91;;;9.71;83.36
76205;BME280;64986;55.672;37.628;2022-11-12T07:01:51;99186.13;;;9.65;83.67
76205;BME280;64986;55.672;37.628;2022-11-12T07:04:17;99177.88;;;9.55;82.60
76205;BME280;64986;55.672;37.628;2022-11-12T07:06:42;99192.38;;;9.70;83.57
76205;BME280;64986;55.672;37.628;2022-11-12T07:09:08;99163.91;;;9.61;83.31
76205;BME280;64986;55.672;37.628;2022-11-12T07:11:33;99167.72;;;9.65;82.87
76205;BME280;64986;55.672;37.628;2022-11-12T07:13:59;99165.09;;;9.65;82.55
76205;BME280;64986;55.672;37.628;2022-11-12T07:16:24;99170.13;;;9.73;82.93
76205;BME280;64986;55.672;37.628;2022-11-12T07:18:50;99181.22;;;9.88;83.56
76205;BME280;64986;55.672;37.628;2022-11-12T07:21:17;99159.22;;;9.83;82.96
76205;BME280;64986;55.672;37.628;2022-11-12T07:23:44;99164.66;;;9.81;82.56
76205;BME280;64986;55.672;37.628;2022-11-12T07:26:17;99138.38;;;9.74;82.59
76205;BME280;64986;55.672;37.628;2022-11-12T07:28:44;99147.25;;;9.80;82.59
76205;BME280;64986;55.672;37.628;2022-11-12T07:31:11;99147.47;;;9.85;83.13
76205;BME280;64986;55.672;37.628;2022-11-12T07:33:37;99111.25;;;9.87;82.25
76205;BME280;64986;55.672;37.628;2022-11-12T07:36:08;99107.56;;;9.95;83.08
76205;BME280;64986;55.672;37.628;2022-11-12T07:38:36;99105.72;;;10.02;82.57
76205;BME280;64986;55.672;37.628;2022-11-12T07:41:10;99124.91;;;10.09;82.39
76205;BME280;64986;55.672;37.628;2022-11-12T07:43:37;99115.66;;;10.00;82.09
76205;BME280;64986;55.672;37.628;2022-11-12T07:46:09;99102.47;;;10.07;82.72
76205;BME280;64986;55.672;37.628;2022-11-12T07:48:35;99095.00;;;9.97;82.37
76205;BME280;64986;55.672;37.628;2022-11-12T07:51:27;99100.06;;;10.05;81.83
76205;BME280;64986;55.672;37.628;2022-11-12T07:53:55;99087.91;;;10.04;81.92
76205;BME280;64986;55.672;37.628;2022-11-12T07:56:23;99115.84;;;10.05;81.74
76205;BME280;64986;55.672;37.628;2022-11-12T07:58:50;99097.75;;;10.15;82.40
76205;BME280;64986;55.672;37.628;2022-11-12T08:04:01;99112.09;;;10.19;81.92
76205;BME280;64986;55.672;37.628;2022-11-12T08:06:28;99098.31;;;10.31;82.39
76205;BME280;64986;55.672;37.628;2022-11-12T08:08:56;99090.06;;;10.20;80.99
76205;BME280;64986;55.672;37.628;2022-11-12T08:11:22;99106.19;;;10.31;81.63
76205;BME280;64986;55.672;37.628;2022-11-12T08:13:48;99084.16;;;10.25;81.71
76205;BME280;64986;55.672;37.628;2022-11-12T08:16:14;99094.47;;;10.26;81.62
76205;BME280;64986;55.672;37.628;2022-11-12T08:18:42;99079.94;;;10.24;80.99
76205;BME280;64986;55.672;37.628;2022-11-12T08:21:11;99075.97;;;10.40;81.69
76205;BME280;64986;55.672;37.628;2022-11-12T08:23:37;99049.06;;;10.38;81.39
76205;BME280;64986;55.672;37.628;2022-11-12T08:26:05;99045.25;;;10.34;80.79
76205;BME280;64986;55.672;37.628;2022-11-12T08:28:32;99051.53;;;10.33;80.99
76205;BME280;64986;55.672;37.628;2022-11-12T08:31:03;99063.06;;;10.32;81.01
76205;BME280;64986;55.672;37.628;2022-11-12T08:33:30;99052.19;;;10.28;80.96
76205;BME280;64986;55.672;37.628;2022-11-12T08:35:55;99030.31;;;10.27;81.51
76205;BME280;64986;55.672;37.628;2022-11-12T08:38:21;99024.06;;;10.22;81.69
76205;BME280;64986;55.672;37.628;2022-11-12T08:40:46;99011.91;;;10.27;81.41
76205;BME280;64986;55.672;37.628;2022-11-12T08:43:12;99004.97;;;10.33;81.61
76205;BME280;64986;55.672;37.628;2022-11-12T08:45:39;99013.16;;;10.18;81.33
76205;BME280;64986;55.672;37.628;2022-11-12T08:48:07;99031.50;;;10.32;81.34
76205;BME280;64986;55.672;37.628;2022-11-12T08:50:33;99031.94;;;10.28;81.72
76205;BME280;64986;55.672;37.628;2022-11-12T08:53:00;99005.66;;;10.28;81.33
76205;BME280;64986;55.672;37.628;2022-11-12T08:55:27;99012.75;;;10.21;81.44
76205;BME280;64986;55.672;37.628;2022-11-12T08:57:53;98994.78;;;10.12;81.24
76205;BME280;64986;55.672;37.628;2022-11-12T09:00:19;99001.63;;;10.19;81.25
76205;BME280;64986;55.672;37.628;2022-11-12T09:02:44;98990.16;;;10.39;81.41
76205;BME280;64986;55.672;37.628;2022-11-12T09:05:10;98985.00;;;10.25;81.31
76205;BME280;64986;55.672;37.628;2022-11-12T09:07:35;98961.34;;;10.25;81.29
76205;BME280;64986;55.672;37.628;2022-11-12T09:10:01;98958.16;;;10.17;81.21
76205;BME280;64986;55.672;37.628;2022-11-12T09:12:26;98958.38;;;10.40;81.30
76205;BME280;64986;55.672;37.628;2022-11-12T09:14:52;98948.44;;;10.17;81.04
76205;BME280;64986;55.672;37.628;2022-11-12T09:17:18;98947.41;;;10.18;81.03
76205;BME280;64986;55.672;37.628;2022-11-12T09:19:43;98957.69;;;10.26;81.23
76205;BME280;64986;55.672;37.628;2022-11-12T09:22:09;98949.50;;;10.35;80.72
76205;BME280;64986;55.672;37.628;2022-11-12T09:24:34;98935.09;;;10.44;80.69
76205;BME280;64986;55.672;37.628;2022-11-12T09:27:00;98927.41;;;10.61;80.78
76205;BME280;64986;55.672;37.628;2022-11-12T09:29:25;98941.16;;;10.63;80.17
76205;BME280;64986;55.672;37.628;2022-11-12T09:31:51;98939.91;;;10.65;80.57
76205;BME280;64986;55.672;37.628;2022-11-12T09:34:16;98895.91;;;10.54;80.54
76205;BME280;64986;55.672;37.628;2022-11-12T09:36:42;98896.34;;;10.51;80.75
76205;BME280;64986;55.672;37.628;2022-11-12T09:39:07;98913.38;;;10.48;80.65
76205;BME280;64986;55.672;37.628;2022-11-12T09:41:40;98877.56;;;10.47;80.63
76205;BME280;64986;55.672;37.628;2022-11-12T09:44:24;98908.22;;;10.35;80.74
76205;BME280;64986;55.672;37.628;2022-11-12T09:47:05;98895.91;;;10.36;80.34
76205;BME280;64986;55.672;37.628;2022-11-12T09:49:44;98870.59;;;10.35;81.20
76205;BME280;64986;55.672;37.628;2022-11-12T09:52:21;98847.66;;;10.42;80.99
76205;BME280;64986;55.672;37.628;2022-11-12T09:55:00;98847.53;;;10.37;81.23
76205;BME280;64986;55.672;37.628;2022-11-12T09:57:26;98860.44;;;10.56;81.08
76205;BME280;64986;55.672;37.628;2022-11-12T09:59:52;98845.88;;;10.72;80.66
76205;BME280;64986;55.672;37.628;2022-11-12T10:02:38;98860.53;;;10.68;80.14
76205;BME280;64986;55.672;37.628;2022-11-12T10:10:15;98853.47;;;10.80;79.99
76205;BME280;64986;55.672;37.628;2022-11-12T10:12:59;98817.94;;;10.71;80.50
76205;BME280;64986;55.672;37.628;2022-11-12T10:23:45;98799.47;;;10.60;80.05
76205;BME280;64986;55.672;37.628;2022-11-12T10:26:16;98798.06;;;10.75;80.32
76205;BME280;64986;55.672;37.628;2022-11-12T10:28:48;98802.75;;;10.73;80.15
76205;BME280;64986;55.672;37.628;2022-11-12T10:31:17;98833.09;;;10.57;80.09
76205;BME280;64986;55.672;37.628;2022-11-12T10:33:43;98836.25;;;10.66;80.45
76205;BME280;64986;55.672;37.628;2022-11-12T10:36:29;98794.94;;;10.67;80.14
76205;BME280;64986;55.672;37.628;2022-11-12T10:38:56;98797.66;;;10.60;80.25
76205;BME280;64986;55.672;37.628;2022-11-12T10:41:27;98800.22;;;10.67;80.25
76205;BME280;64986;55.672;37.628;2022-11-12T10:43:58;98811.31;;;10.69;79.69
76205;BME280;64986;55.672;37.628;2022-11-12T10:46:32;98806.78;;;10.57;79.91
76205;BME280;64986;55.672;37.628;2022-11-12T10:51:40;98825.84;;;10.71;79.46
76205;BME280;64986;55.672;37.628;2022-11-12T10:54:35;98800.63;;;10.64;79.27
76205;BME280;64986;55.672;37.628;2022-11-12T10:57:21;98779.06;;;10.73;79.88
76205;BME280;64986;55.672;37.628;2022-11-12T11:00:05;98784.22;;;10.80;79.46
76205;BME280;64986;55.672;37.628;2022-11-12T11:02:31;98779.25;;;10.72;79.90
76205;BME280;64986;55.672;37.628;2022-11-12T11:04:57;98784.75;;;10.70;79.78
76205;BME280;64986;55.672;37.628;2022-11-12T11:07:24;98791.53;;;10.78;79.74
76205;BME280;64986;55.672;37.628;2022-11-12T11:09:55;98758.50;;;10.52;80.19
76205;BME280;64986;55.672;37.628;2022-11-12T11:12:23;98764.84;;;10.44;80.62
76205;BME280;64986;55.672;37.628;2022-11-12T11:15:05;98751.75;;;10.19;81.49
76205;BME280;64986;55.672;37.628;2022-11-12T11:17:32;98755.59;;;10.23;81.44
76205;BME280;64986;55.672;37.628;2022-11-12T11:19:58;98753.81;;;10.17;81.61
76205;BME280;64986;55.672;37.628;2022-11-12T11:22:38;98734.53;;;10.23;82.00
76205;BME280;64986;55.672;37.628;2022-11-12T11:25:19;98727.66;;;10.04;82.02
76205;BME280;64986;55.672;37.628;2022-11-12T11:27:56;98722.78;;;10.08;82.05
76205;BME280;64986;55.672;37.628;2022-11-12T11:30:23;98719.19;;;10.02;82.34
76205;BME280;64986;55.672;37.628;2022-11-12T11:43:24;98662.31;;;10.19;81.99
76205;BME280;64986;55.672;37.628;2022-11-12T11:57:27;98662.66;;;9.93;83.09
76205;BME280;64986;55.672;37.628;2022-11-12T12:05:27;98621.94;;;9.84;85.06
76205;BME280;64986;55.672;37.628;2022-11-12T12:08:07;98624.34;;;9.85;84.57
76205;BME280;64986;55.672;37.628;2022-11-12T12:13:28;98600.69;;;9.85;83.62
76205;BME280;64986;55.672;37.628;2022-11-12T12:16:25;98607.81;;;9.96;83.41
76205;BME280;64986;55.672;37.628;2022-11-12T12:19:04;98595.50;;;9.79;84.31
76205;BME280;64986;55.672;37.628;2022-11-12T12:21:35;98602.06;;;9.88;84.40
76205;BME280;64986;55.672;37.628;2022-11-12T12:26:49;98591.84;;;9.80;85.17
76205;BME280;64986;55.672;37.628;2022-11-12T12:29:27;98583.44;;;9.89;84.39
76205;BME280;64986;55.672;37.628;2022-11-12T12:32:11;98587.16;;;9.82;84.51
76205;BME280;64986;55.672;37.628;2022-11-12T12:34:42;98572.50;;;9.74;84.73
76205;BME280;64986;55.672;37.628;2022-11-12T12:37:34;98560.00;;;9.88;84.57
76205;BME280;64986;55.672;37.628;2022-11-12T12:40:08;98549.38;;;9.83;84.78
76205;BME280;64986;55.672;37.628;2022-11-12T12:42:43;98579.44;;;9.87;84.61
76205;BME280;64986;55.672;37.628;2022-11-12T12:45:42;98584.22;;;9.90;84.32
76205;BME280;64986;55.672;37.628;2022-11-12T12:48:35;98583.09;;;9.86;84.78
76205;BME280;64986;55.672;37.628;2022-11-12T12:51:03;98547.34;;;9.96;84.05
76205;BME280;64986;55.672;37.628;2022-11-12T12:55:56;98520.75;;;9.74;86.11
76205;BME280;64986;55.672;37.628;2022-11-12T12:58:31;98540.31;;;9.79;85.72
76205;BME280;64986;55.672;37.628;2022-11-12T13:01:02;98521.50;;;9.93;85.08
76205;BME280;64986;55.672;37.628;2022-11-12T13:03:51;98496.16;;;9.99;84.88
76205;BME280;64986;55.672;37.628;2022-11-12T13:19:33;98510.81;;;10.18;84.96
76205;BME280;64986;55.672;37.628;2022-11-12T13:43:41;98487.31;;;10.35;85.03
76205;BME280;64986;55.672;37.628;2022-11-12T13:48:47;98474.84;;;10.42;85.34
76205;BME280;64986;55.672;37.628;2022-11-12T13:53:43;98523.03;;;10.54;84.74
76205;BME280;64986;55.672;37.628;2022-11-12T13:56:09;98494.19;;;10.48;84.80
76205;BME280;64986;55.672;37.628;2022-11-12T13:58:36;98532.84;;;10.47;85.13
76205;BME280;64986;55.672;37.628;2022-11-12T14:01:05;98495.34;;;10.52;85.25
76205;BME280;64986;55.672;37.628;2022-11-12T14:03:44;98495.56;;;10.62;85.36
76205;BME280;64986;55.672;37.628;2022-11-12T14:06:35;98502.66;;;10.62;84.74
76205;BME280;64986;55.672;37.628;2022-11-12T14:09:38;98563.44;;;10.60;84.96
76205;BME280;64986;55.672;37.628;2022-11-12T14:20:27;98505.41;;;10.78;84.52
76205;BME280;64986;55.672;37.628;2022-11-12T14:23:03;98514.56;;;10.64;84.61
76205;BME280;64986;55.672;37.628;2022-11-12T14:25:33;98537.78;;;10.79;85.29
76205;BME280;64986;55.672;37.628;2022-11-12T14:27:59;98478.72;;;10.87;84.83
76205;BME280;64986;55.672;37.628;2022-11-12T14:30:26;98533.13;;;10.81;84.63
76205;BME280;64986;55.672;37.628;2022-11-12T14:33:07;98498.41;;;10.72;85.23
76205;BME280;64986;55.672;37.628;2022-11-12T14:35:36;98487.53;;;10.80;85.02
76205;BME280;64986;55.672;37.628;2022-11-12T14:40:42;98493.63;;;10.69;84.94
76205;BME280;64986;55.672;37.628;2022-11-12T14:43:32;98493.94;;;10.73;85.20
76205;BME280;64986;55.672;37.628;2022-11-12T14:46:01;98500.38;;;10.65;85.90
76205;BME280;64986;55.672;37.628;2022-11-12T14:48:28;98601.19;;;10.77;85.61
76205;BME280;64986;55.672;37.628;2022-11-12T14:51:02;98551.66;;;10.74;85.77
76205;BME280;64986;55.672;37.628;2022-11-12T14:56:32;98552.78;;;10.78;85.17
76205;BME280;64986;55.672;37.628;2022-11-12T14:58:59;98508.03;;;10.78;86.04